createdAt,value
2022-07-31T00:00:31.763Z,6.87
2022-07-31T00:02:59.101Z,6.10
2022-07-31T00:05:28.666Z,6.07
2022-07-31T00:07:56.122Z,6.17
2022-07-31T00:10:23.510Z,6.27
2022-07-31T00:12:53.116Z,6.40
2022-07-31T00:15:20.357Z,5.80
2022-07-31T00:17:50.702Z,5.90
2022-07-31T00:20:19.221Z,5.23
2022-07-31T00:22:48.777Z,5.77
2022-07-31T00:25:19.774Z,5.37
2022-07-31T00:27:46.960Z,5.00
2022-07-31T00:30:14.588Z,5.17
2022-07-31T00:32:45.464Z,6.73
2022-07-31T00:35:14.764Z,5.70
2022-07-31T00:37:44.304Z,5.30
2022-07-31T00:40:14.270Z,5.37
2022-07-31T00:42:44.657Z,5.27
2022-07-31T00:45:14.371Z,5.00
2022-07-31T00:47:45.003Z,5.70
2022-07-31T00:50:13.308Z,5.37
2022-07-31T00:52:40.720Z,5.53
2022-07-31T00:55:11.321Z,5.70
2022-07-31T00:57:40.668Z,5.07
2022-07-31T01:00:11.008Z,5.20
2022-07-31T01:02:46.618Z,5.00
2022-07-31T01:05:14.060Z,5.33
2022-07-31T01:07:43.475Z,5.10
2022-07-31T01:10:22.874Z,5.83
2022-07-31T01:13:00.240Z,5.50
2022-07-31T01:15:28.847Z,5.20
2022-07-31T01:17:56.903Z,5.67
2022-07-31T01:20:25.550Z,5.77
2022-07-31T01:23:23.030Z,6.00
2022-07-31T01:26:34.964Z,5.33
2022-07-31T01:29:26.951Z,5.43
2022-07-31T01:32:08.997Z,6.00
2022-07-31T01:35:03.678Z,5.17
2022-07-31T01:37:40.829Z,5.77
2022-07-31T01:40:17.780Z,5.30
2022-07-31T01:43:01.791Z,5.47
2022-07-31T01:45:30.355Z,7.17
2022-07-31T01:47:59.004Z,7.07
2022-07-31T01:50:43.833Z,6.20
2022-07-31T01:53:16.416Z,5.60
2022-07-31T01:56:02.458Z,6.70
2022-07-31T01:58:37.547Z,6.90
2022-07-31T02:01:08.291Z,6.67
2022-07-31T02:03:44.530Z,7.10
2022-07-31T02:06:19.173Z,6.90
2022-07-31T02:08:51.682Z,6.63
2022-07-31T02:11:22.661Z,6.70
2022-07-31T02:13:53.466Z,6.90
2022-07-31T02:16:21.650Z,6.67
2022-07-31T02:18:51.533Z,6.87
2022-07-31T02:21:19.026Z,7.13
2022-07-31T02:23:46.270Z,6.97
2022-07-31T02:26:15.910Z,6.53
2022-07-31T02:28:45.088Z,7.10
2022-07-31T02:31:17.957Z,7.17
2022-07-31T02:33:51.420Z,6.80
2022-07-31T02:36:23.882Z,6.37
2022-07-31T02:38:57.651Z,5.63
2022-07-31T02:41:28.242Z,6.67
2022-07-31T02:43:56.200Z,6.70
2022-07-31T02:46:23.863Z,6.83
2022-07-31T02:48:54.018Z,7.13
2022-07-31T02:51:22.363Z,6.60
2022-07-31T02:53:49.706Z,6.60
2022-07-31T02:56:17.158Z,6.60
2022-07-31T02:58:46.811Z,6.97
2022-07-31T03:01:16.775Z,7.10
2022-07-31T03:03:50.286Z,7.63
2022-07-31T03:06:18.406Z,7.67
2022-07-31T03:08:45.477Z,9.50
2022-07-31T03:11:12.663Z,7.50
2022-07-31T03:13:43.771Z,7.10
2022-07-31T03:16:12.029Z,8.40
2022-07-31T03:18:41.315Z,7.80
2022-07-31T03:21:11.226Z,6.80
2022-07-31T03:23:41.800Z,7.73
2022-07-31T03:26:10.561Z,7.60
2022-07-31T03:28:37.808Z,8.23
2022-07-31T03:31:04.953Z,8.63
2022-07-31T03:33:31.991Z,8.70
2022-07-31T03:35:59.478Z,7.67
2022-07-31T03:38:41.510Z,8.60
2022-07-31T03:41:11.085Z,8.53
2022-07-31T03:43:47.516Z,8.80
2022-07-31T03:46:20.310Z,8.10
2022-07-31T03:48:48.113Z,9.20
2022-07-31T03:51:18.869Z,7.67
2022-07-31T03:53:46.986Z,8.93
2022-07-31T03:56:15.376Z,8.10
2022-07-31T03:58:42.705Z,7.27
2022-07-31T04:01:20.614Z,7.03
2022-07-31T04:03:47.878Z,7.30
2022-07-31T04:06:17.083Z,7.23
2022-07-31T04:08:52.008Z,7.33
2022-07-31T04:11:21.541Z,6.50
2022-07-31T04:13:50.866Z,6.20
2022-07-31T04:16:20.214Z,6.03
2022-07-31T04:18:47.813Z,6.33
2022-07-31T04:21:23.229Z,6.53
2022-07-31T04:23:50.653Z,6.33
2022-07-31T04:26:25.460Z,6.13
2022-07-31T04:28:56.149Z,6.30
2022-07-31T04:31:26.444Z,6.53
2022-07-31T04:33:56.875Z,7.03
2022-07-31T04:36:30.470Z,7.27
2022-07-31T04:39:01.936Z,6.70
2022-07-31T04:41:29.093Z,6.10
2022-07-31T04:43:59.855Z,7.07
2022-07-31T04:46:29.482Z,6.33
2022-07-31T04:48:56.774Z,7.73
2022-07-31T04:51:27.045Z,7.60
2022-07-31T04:53:57.274Z,7.10
2022-07-31T04:56:42.432Z,7.70
2022-07-31T04:59:16.398Z,7.30
2022-07-31T05:01:47.985Z,7.90
2022-07-31T05:04:16.067Z,7.50
2022-07-31T05:06:47.841Z,7.90
2022-07-31T05:09:23.636Z,8.30
2022-07-31T05:11:53.231Z,7.70
2022-07-31T05:14:23.896Z,7.37
2022-07-31T05:16:51.132Z,8.10
2022-07-31T05:19:18.553Z,7.97
2022-07-31T05:22:03.836Z,7.13
2022-07-31T05:24:33.618Z,7.90
2022-07-31T05:27:06.036Z,7.10
2022-07-31T05:29:33.884Z,8.83
2022-07-31T05:32:03.689Z,8.17
2022-07-31T05:34:31.191Z,7.60
2022-07-31T05:37:02.702Z,7.70
2022-07-31T05:39:30.743Z,7.80
2022-07-31T05:41:58.338Z,8.63
2022-07-31T05:44:25.409Z,8.80
2022-07-31T05:49:22.540Z,7.90
2022-07-31T05:51:54.297Z,8.13
2022-07-31T05:54:22.587Z,8.00
2022-07-31T05:56:49.676Z,7.77
2022-07-31T05:59:16.860Z,8.87
2022-07-31T06:01:44.125Z,7.97
2022-07-31T06:04:14.227Z,8.63
2022-07-31T06:06:43.617Z,8.37
2022-07-31T06:09:13.177Z,8.77
2022-07-31T06:11:40.346Z,8.10
2022-07-31T06:14:12.549Z,7.83
2022-07-31T06:16:42.503Z,8.93
2022-07-31T06:19:09.618Z,8.20
2022-07-31T06:21:36.647Z,7.30
2022-07-31T06:24:03.864Z,7.77
2022-07-31T06:26:31.495Z,7.67
2022-07-31T06:28:58.605Z,7.83
2022-07-31T06:31:30.492Z,9.00
2022-07-31T06:33:59.971Z,8.70
2022-07-31T06:36:29.489Z,8.63
2022-07-31T06:38:56.676Z,9.17
2022-07-31T06:41:42.573Z,8.70
2022-07-31T06:44:11.743Z,9.13
2022-07-31T06:46:39.489Z,8.97
2022-07-31T06:49:17.284Z,8.47
2022-07-31T06:51:45.249Z,8.30
2022-07-31T06:54:12.610Z,7.27
2022-07-31T06:56:39.972Z,8.40
2022-07-31T06:59:08.356Z,7.87
2022-07-31T07:01:38.972Z,8.33
2022-07-31T07:04:06.105Z,8.23
2022-07-31T07:06:35.792Z,8.03
2022-07-31T07:09:02.764Z,8.17
2022-07-31T07:11:29.889Z,8.20
2022-07-31T07:13:57.183Z,7.80
2022-07-31T07:16:30.136Z,6.50
2022-07-31T07:18:59.636Z,7.00
2022-07-31T07:21:27.147Z,7.47
2022-07-31T07:23:54.128Z,6.60
2022-07-31T07:26:21.407Z,6.40
2022-07-31T07:28:53.256Z,6.30
2022-07-31T07:31:20.238Z,5.83
2022-07-31T07:33:47.833Z,6.60
2022-07-31T07:36:23.342Z,6.00
2022-07-31T07:38:56.005Z,6.90
2022-07-31T07:41:29.122Z,5.80
2022-07-31T07:43:58.247Z,7.60
2022-07-31T07:46:27.718Z,7.70
2022-07-31T07:49:00.117Z,6.23
2022-07-31T07:51:27.284Z,6.53
2022-07-31T07:53:54.411Z,6.37
2022-07-31T07:56:21.591Z,5.77
2022-07-31T07:58:49.229Z,5.43
2022-07-31T08:01:16.804Z,4.50
2022-07-31T08:03:51.236Z,5.27
2022-07-31T08:06:25.834Z,4.33
2022-07-31T08:08:54.982Z,5.00
2022-07-31T08:11:27.847Z,4.47
2022-07-31T08:13:57.438Z,4.00
2022-07-31T08:16:24.471Z,4.40
2022-07-31T08:18:53.055Z,3.53
2022-07-31T08:21:22.302Z,4.30
2022-07-31T08:23:49.367Z,3.87
2022-07-31T08:26:27.309Z,3.93
2022-07-31T08:28:55.868Z,3.10
2022-07-31T08:31:23.111Z,3.60
2022-07-31T08:33:50.106Z,3.13
2022-07-31T08:36:17.183Z,3.20
2022-07-31T08:38:44.239Z,3.70
2022-07-31T08:41:15.121Z,3.73
2022-07-31T08:44:01.725Z,3.23
2022-07-31T08:46:42.554Z,2.70
2022-07-31T08:49:16.149Z,2.40
2022-07-31T08:51:50.902Z,3.10
2022-07-31T08:54:23.025Z,2.57
2022-07-31T08:56:52.930Z,2.80
2022-07-31T08:59:22.192Z,2.90
2022-07-31T09:01:49.367Z,3.13
2022-07-31T09:04:17.454Z,2.73
2022-07-31T09:06:45.312Z,2.27
2022-07-31T09:09:15.242Z,2.50
2022-07-31T09:11:55.363Z,2.43
2022-07-31T09:14:32.327Z,2.30
2022-07-31T09:16:59.519Z,2.40
2022-07-31T09:19:52.307Z,2.30
2022-07-31T09:22:29.501Z,2.10
2022-07-31T09:25:19.345Z,2.03
2022-07-31T09:28:00.604Z,2.80
2022-07-31T09:30:27.876Z,2.30
2022-07-31T09:32:54.954Z,2.20
2022-07-31T09:35:22.175Z,2.47
2022-07-31T09:37:49.505Z,2.30
2022-07-31T09:40:21.465Z,2.60
2022-07-31T09:42:55.293Z,2.40
2022-07-31T09:45:27.673Z,2.20
2022-07-31T09:48:12.431Z,1.97
2022-07-31T09:50:54.791Z,2.10
2022-07-31T09:53:22.149Z,2.00
2022-07-31T09:56:00.416Z,2.20
2022-07-31T09:58:27.607Z,2.10
2022-07-31T10:00:56.646Z,1.93
2022-07-31T10:03:26.293Z,1.87
2022-07-31T10:05:59.459Z,1.70
2022-07-31T10:08:36.398Z,2.17
2022-07-31T10:11:06.077Z,1.90
2022-07-31T10:13:46.996Z,1.77
2022-07-31T10:16:17.326Z,2.00
2022-07-31T10:18:53.169Z,1.90
2022-07-31T10:21:32.257Z,1.60
2022-07-31T10:24:00.818Z,2.23
2022-07-31T10:26:57.389Z,2.10
2022-07-31T10:29:20.133Z,2.13
2022-07-31T10:31:47.491Z,1.87
2022-07-31T10:34:16.248Z,2.03
2022-07-31T10:36:49.508Z,2.10
2022-07-31T10:39:31.314Z,2.30
2022-07-31T10:42:43.219Z,1.83
2022-07-31T10:45:15.190Z,1.70
2022-07-31T10:48:01.763Z,2.10
2022-07-31T10:50:31.901Z,1.70
2022-07-31T10:53:15.661Z,1.57
2022-07-31T10:55:45.908Z,1.60
2022-07-31T10:58:21.910Z,2.03
2022-07-31T11:00:53.840Z,2.10
2022-07-31T11:03:23.101Z,1.70
2022-07-31T11:06:01.004Z,1.70
2022-07-31T11:08:42.804Z,1.73
2022-07-31T11:11:11.081Z,1.93
2022-07-31T11:13:55.419Z,1.90
2022-07-31T11:16:22.707Z,1.90
2022-07-31T11:19:09.592Z,2.37
2022-07-31T11:21:43.018Z,2.10
2022-07-31T11:24:23.325Z,2.27
2022-07-31T11:26:58.227Z,2.10
2022-07-31T11:29:59.798Z,3.00
2022-07-31T11:32:25.638Z,2.53
2022-07-31T11:34:57.414Z,2.40
2022-07-31T11:37:46.045Z,2.20
2022-07-31T11:40:22.305Z,2.27
2022-07-31T11:43:24.244Z,3.10
2022-07-31T11:45:51.306Z,2.20
2022-07-31T11:48:24.575Z,2.40
2022-07-31T11:50:54.749Z,2.70
2022-07-31T11:53:22.099Z,2.53
2022-07-31T11:55:59.008Z,2.47
2022-07-31T11:58:28.750Z,2.87
2022-07-31T12:01:04.504Z,2.10
2022-07-31T12:03:37.036Z,2.27
2022-07-31T12:06:06.697Z,2.37
2022-07-31T12:08:42.236Z,2.47
2022-07-31T12:11:11.426Z,2.43
2022-07-31T12:13:40.048Z,1.80
2022-07-31T12:16:09.838Z,2.40
2022-07-31T12:19:01.749Z,2.57
2022-07-31T12:21:37.912Z,2.30
2022-07-31T12:24:13.117Z,2.03
2022-07-31T12:26:51.065Z,2.50
2022-07-31T12:29:32.776Z,1.70
2022-07-31T12:32:00.486Z,1.83
2022-07-31T12:34:38.565Z,2.00
2022-07-31T12:37:06.983Z,2.50
2022-07-31T12:39:59.682Z,2.20
2022-07-31T12:42:40.687Z,2.20
2022-07-31T12:45:18.145Z,2.57
2022-07-31T12:47:52.195Z,2.53
2022-07-31T12:50:24.289Z,2.53
2022-07-31T12:52:51.487Z,2.00
2022-07-31T12:55:22.470Z,1.87
2022-07-31T12:57:52.456Z,2.50
2022-07-31T13:00:27.553Z,2.57
2022-07-31T13:02:56.835Z,2.27
2022-07-31T13:05:25.398Z,2.17
2022-07-31T13:07:57.362Z,2.70
2022-07-31T13:10:29.265Z,2.53
2022-07-31T13:13:04.591Z,2.57
2022-07-31T13:15:31.713Z,2.30
2022-07-31T13:18:04.927Z,2.83
2022-07-31T13:20:32.654Z,2.30
2022-07-31T13:23:02.832Z,2.10
2022-07-31T13:25:32.826Z,1.97
2022-07-31T13:28:00.547Z,2.40
2022-07-31T13:30:30.533Z,2.17
2022-07-31T13:32:57.572Z,2.30
2022-07-31T13:35:28.522Z,2.80
2022-07-31T13:37:57.201Z,2.33
2022-07-31T13:40:44.534Z,2.17
2022-07-31T13:43:12.394Z,2.10
2022-07-31T13:45:41.800Z,3.30
2022-07-31T13:48:10.199Z,2.73
2022-07-31T13:50:39.960Z,2.90
2022-07-31T13:53:09.516Z,3.00
2022-07-31T13:55:37.660Z,2.30
2022-07-31T13:58:05.194Z,2.73
2022-07-31T14:00:34.888Z,2.50
2022-07-31T14:03:01.931Z,2.73
2022-07-31T14:05:29.087Z,3.30
2022-07-31T14:08:03.234Z,2.90
2022-07-31T14:10:52.070Z,2.67
2022-07-31T14:13:22.435Z,2.70
2022-07-31T14:15:49.713Z,3.10
2022-07-31T14:18:18.979Z,3.00
2022-07-31T14:20:46.640Z,3.00
2022-07-31T14:23:16.163Z,3.03
2022-07-31T14:25:43.296Z,3.07
2022-07-31T14:28:13.025Z,3.43
2022-07-31T14:30:45.998Z,2.73
2022-07-31T14:33:14.308Z,3.10
2022-07-31T14:35:43.878Z,3.10
2022-07-31T14:38:10.929Z,2.90
2022-07-31T14:40:38.147Z,3.40
2022-07-31T14:43:05.183Z,2.50
2022-07-31T14:45:51.397Z,3.80
2022-07-31T14:48:22.062Z,3.90
2022-07-31T14:50:52.054Z,3.10
2022-07-31T14:53:19.021Z,3.27
2022-07-31T14:55:48.179Z,3.70
2022-07-31T14:58:21.372Z,3.30
2022-07-31T15:00:48.402Z,3.23
2022-07-31T15:03:18.201Z,2.80
2022-07-31T15:06:39.953Z,3.00
2022-07-31T15:08:38.583Z,3.33
2022-07-31T15:11:05.603Z,3.63
2022-07-31T15:13:36.056Z,3.90
2022-07-31T15:16:06.028Z,3.80
2022-07-31T15:18:35.297Z,3.77
2022-07-31T15:21:04.885Z,3.20
2022-07-31T15:23:37.305Z,3.20
2022-07-31T15:26:06.993Z,3.43
2022-07-31T15:28:34.573Z,3.63
2022-07-31T15:31:07.713Z,4.37
2022-07-31T15:33:34.870Z,3.70
2022-07-31T15:36:04.408Z,3.80
2022-07-31T15:38:33.813Z,4.40
2022-07-31T15:41:00.865Z,4.20
2022-07-31T15:43:32.127Z,4.03
2022-07-31T15:46:08.692Z,4.10
2022-07-31T15:48:37.377Z,4.20
2022-07-31T15:51:09.388Z,4.23
2022-07-31T15:53:39.018Z,4.10
2022-07-31T15:56:06.814Z,5.07
2022-07-31T15:58:34.035Z,5.83
2022-07-31T16:01:01.205Z,5.20
2022-07-31T16:03:50.840Z,7.20
2022-07-31T16:06:20.401Z,6.67
2022-07-31T16:08:59.871Z,5.73
2022-07-31T16:12:04.662Z,5.57
2022-07-31T16:14:13.921Z,5.03
2022-07-31T16:16:45.515Z,5.30
2022-07-31T16:19:13.068Z,4.93
2022-07-31T16:21:42.458Z,5.50
2022-07-31T16:24:09.485Z,5.67
2022-07-31T16:26:40.045Z,5.47
2022-07-31T16:29:07.760Z,5.10
2022-07-31T16:31:46.833Z,5.67
2022-07-31T16:34:13.849Z,6.17
2022-07-31T16:36:44.236Z,6.93
2022-07-31T16:39:20.481Z,7.63
2022-07-31T16:41:54.421Z,7.77
2022-07-31T16:44:22.466Z,7.30
2022-07-31T16:46:54.500Z,7.03
2022-07-31T16:49:28.367Z,7.73
2022-07-31T16:52:06.782Z,7.40
2022-07-31T16:54:34.242Z,6.50
2022-07-31T16:57:03.589Z,7.20
2022-07-31T16:59:30.910Z,6.83
2022-07-31T17:02:01.116Z,7.40
2022-07-31T17:04:29.002Z,6.77
2022-07-31T17:06:58.966Z,7.03
2022-07-31T17:09:26.266Z,7.60
2022-07-31T17:11:56.539Z,7.80
2022-07-31T17:14:26.589Z,7.43
2022-07-31T17:16:55.378Z,8.37
2022-07-31T17:19:41.650Z,8.40
2022-07-31T17:22:17.756Z,10.20
2022-07-31T17:24:50.891Z,8.83
2022-07-31T17:27:19.617Z,9.27
2022-07-31T17:29:46.747Z,8.80
2022-07-31T17:32:13.892Z,9.60
2022-07-31T17:34:45.050Z,9.87
2022-07-31T17:37:14.375Z,10.73
2022-07-31T17:39:41.488Z,9.80
2022-07-31T17:42:09.542Z,10.10
2022-07-31T17:44:39.856Z,10.43
2022-07-31T17:47:10.506Z,11.70
2022-07-31T17:49:40.255Z,10.60
2022-07-31T17:52:09.979Z,10.40
2022-07-31T17:54:39.354Z,11.73
2022-07-31T17:57:07.157Z,11.20
2022-07-31T17:59:37.238Z,11.70
2022-07-31T18:02:04.961Z,10.70
2022-07-31T18:04:38.750Z,11.47
2022-07-31T18:07:11.360Z,11.50
2022-07-31T18:09:44.418Z,10.70
2022-07-31T18:12:15.707Z,10.30
2022-07-31T18:14:43.310Z,11.40
2022-07-31T18:17:10.547Z,10.27
2022-07-31T18:19:37.897Z,10.40
2022-07-31T18:22:05.076Z,10.67
2022-07-31T18:24:32.642Z,9.90
2022-07-31T18:26:59.816Z,8.37
2022-07-31T18:29:31.726Z,9.13
2022-07-31T18:32:02.287Z,9.00
2022-07-31T18:34:31.996Z,8.30
2022-07-31T18:37:06.550Z,7.43
2022-07-31T18:39:49.017Z,8.20
2022-07-31T18:42:19.729Z,8.37
2022-07-31T18:44:46.941Z,7.90
2022-07-31T18:47:14.100Z,8.10
2022-07-31T18:51:01.845Z,8.27
2022-07-31T18:52:32.614Z,7.90
2022-07-31T18:55:02.166Z,7.97
2022-07-31T18:57:34.743Z,7.17
2022-07-31T19:00:02.356Z,7.90
2022-07-31T19:02:31.717Z,6.50
2022-07-31T19:05:02.248Z,6.93
2022-07-31T19:07:30.272Z,6.77
2022-07-31T19:10:06.000Z,6.90
2022-07-31T19:12:36.254Z,7.17
2022-07-31T19:15:04.637Z,6.40
2022-07-31T19:17:44.701Z,7.10
2022-07-31T19:20:12.648Z,7.00
2022-07-31T19:23:02.191Z,7.40
2022-07-31T19:25:53.872Z,7.53
2022-07-31T19:28:26.683Z,8.90
2022-07-31T19:30:57.176Z,7.27
2022-07-31T19:33:26.933Z,8.37
2022-07-31T19:36:01.758Z,6.27
2022-07-31T19:38:31.723Z,6.73
2022-07-31T19:41:00.154Z,5.77
2022-07-31T19:43:27.725Z,4.50
2022-07-31T19:46:00.634Z,4.73
2022-07-31T19:48:45.371Z,4.80
2022-07-31T19:51:14.274Z,4.83
2022-07-31T19:53:42.298Z,5.23
2022-07-31T19:56:10.966Z,5.67
2022-07-31T19:58:42.577Z,5.57
2022-07-31T20:01:13.110Z,5.70
2022-07-31T20:03:40.365Z,5.53
2022-07-31T20:06:08.059Z,5.40
2022-07-31T20:08:39.865Z,5.60
2022-07-31T20:11:10.666Z,5.20
2022-07-31T20:13:40.124Z,5.20
2022-07-31T20:16:07.426Z,5.13
2022-07-31T20:18:36.677Z,4.30
2022-07-31T20:21:11.751Z,4.53
2022-07-31T20:23:48.918Z,4.40
2022-07-31T20:26:21.737Z,4.83
2022-07-31T20:28:48.647Z,4.00
2022-07-31T20:31:21.420Z,4.43
2022-07-31T20:33:56.940Z,4.57
2022-07-31T20:36:24.152Z,3.83
2022-07-31T20:38:51.319Z,4.03
2022-07-31T20:41:18.307Z,4.40
2022-07-31T20:43:45.310Z,4.60
2022-07-31T20:46:12.296Z,4.63
2022-07-31T20:48:41.742Z,4.23
2022-07-31T20:51:15.933Z,4.53
2022-07-31T20:53:44.153Z,4.90
2022-07-31T20:56:12.345Z,4.77
2022-07-31T20:58:41.752Z,5.50
2022-07-31T21:01:11.833Z,6.03
2022-07-31T21:03:38.946Z,5.20
2022-07-31T21:06:08.085Z,5.47
2022-07-31T21:08:35.099Z,5.63
2022-07-31T21:11:06.075Z,4.97
2022-07-31T21:13:36.296Z,5.43
2022-07-31T21:16:05.906Z,5.27
2022-07-31T21:18:34.687Z,5.40
2022-07-31T21:21:02.575Z,4.87
2022-07-31T21:23:29.523Z,5.90
2022-07-31T21:25:58.394Z,5.83
2022-07-31T21:28:27.400Z,5.97
2022-07-31T21:30:56.026Z,5.43
2022-07-31T21:33:25.862Z,5.40
2022-07-31T21:35:55.749Z,6.23
2022-07-31T21:38:23.395Z,5.67
2022-07-31T21:40:50.761Z,5.60
2022-07-31T21:43:22.962Z,5.20
2022-07-31T21:45:57.769Z,5.40
2022-07-31T21:48:32.826Z,5.20
2022-07-31T21:51:02.619Z,5.17
2022-07-31T21:53:32.007Z,5.33
2022-07-31T21:56:02.931Z,5.37
2022-07-31T21:58:29.909Z,4.90
2022-07-31T22:00:59.192Z,5.67
2022-07-31T22:03:26.047Z,6.10
2022-07-31T22:06:14.026Z,5.97
2022-07-31T22:08:40.949Z,6.10
2022-07-31T22:11:07.906Z,5.83
2022-07-31T22:13:34.912Z,5.30
2022-07-31T22:16:01.986Z,5.93
2022-07-31T22:18:32.028Z,5.73
2022-07-31T22:21:06.626Z,5.70
2022-07-31T22:23:38.548Z,6.10
2022-07-31T22:26:06.012Z,6.13
2022-07-31T22:28:33.211Z,6.10
2022-07-31T22:31:00.358Z,5.93
2022-07-31T22:33:27.334Z,6.43
2022-07-31T22:35:59.039Z,6.67
2022-07-31T22:38:29.435Z,6.77
2022-07-31T22:40:57.610Z,6.43
2022-07-31T22:44:13.388Z,6.60
2022-07-31T22:46:15.438Z,7.07
2022-07-31T22:48:45.024Z,6.27
2022-07-31T22:51:14.305Z,6.70
2022-07-31T22:53:50.203Z,6.70
2022-07-31T22:56:20.133Z,6.87
2022-07-31T22:58:49.209Z,6.73
2022-07-31T23:01:16.050Z,7.63
2022-07-31T23:03:45.535Z,7.20
2022-07-31T23:06:31.206Z,8.67
2022-07-31T23:09:00.000Z,7.50
2022-07-31T23:11:27.652Z,8.57
2022-07-31T23:13:56.820Z,8.37
2022-07-31T23:16:26.492Z,8.23
2022-07-31T23:18:55.705Z,8.70
2022-07-31T23:21:27.252Z,8.83
2022-07-31T23:23:54.458Z,9.23
2022-07-31T23:26:24.290Z,9.60
2022-07-31T23:28:54.681Z,8.90
2022-07-31T23:31:22.575Z,8.70
2022-07-31T23:33:50.151Z,10.30
2022-07-31T23:36:17.796Z,10.30
2022-07-31T23:38:49.451Z,9.60
2022-07-31T23:41:36.345Z,10.10
2022-07-31T23:44:03.316Z,11.00
2022-07-31T23:46:38.604Z,10.53
2022-07-31T23:49:11.790Z,12.70
2022-07-31T23:51:41.178Z,11.37
2022-07-31T23:54:08.564Z,11.60
2022-07-31T23:56:35.507Z,11.93
2022-07-31T23:59:06.836Z,11.23
